Time;durP1;ratioP1;P1;durP2;ratioP2;P2;SDS_P1;SDS_P2;PMS_P1;PMS_P2;Temp;Humidity;BMP_temperature;BMP_pressure;BME280_temperature;BME280_humidity;BME280_pressure;Samples;Min_cycle;Max_cycle;Signal;HPM_P1;HPM_P2
2021/05/26 00:02:03;;;;;;;12.03;3.60;;;;;;;;;;5093427;28;20233;-81
2021/05/26 00:04:29;;;;;;;15.37;3.80;;;;;;;;;;5077609;28;20232;-81
2021/05/26 00:06:56;;;;;;;9.73;3.30;;;;;;;;;;5079682;28;20681;-82
2021/05/26 00:09:23;;;;;;;10.73;4.10;;;;;;;;;;5093559;28;20963;-83
2021/05/26 00:11:49;;;;;;;13.90;3.57;;;;;;;;;;5092042;28;20231;-82
2021/05/26 00:14:17;;;;;;;13.07;4.00;;;;;;;;;;5091619;28;20226;-82
2021/05/26 00:16:44;;;;;;;13.03;3.83;;;;;;;;;;5091522;28;20240;-82
2021/05/26 00:19:11;;;;;;;16.03;4.00;;;;;;;;;;5091426;28;20730;-83
2021/05/26 00:21:38;;;;;;;15.90;4.30;;;;;;;;;;5083919;28;20194;-83
2021/05/26 00:24:05;;;;;;;10.80;4.37;;;;;;;;;;5081677;28;20195;-82
2021/05/26 00:26:32;;;;;;;10.70;3.60;;;;;;;;;;5083306;28;20349;-83
2021/05/26 00:28:59;;;;;;;11.60;3.70;;;;;;;;;;5078187;28;20226;-82
2021/05/26 00:31:26;;;;;;;11.07;3.43;;;;;;;;;;5073420;28;20200;-83
2021/05/26 00:33:53;;;;;;;10.63;4.20;;;;;;;;;;5078095;28;20286;-82
2021/05/26 00:36:20;;;;;;;13.00;3.90;;;;;;;;;;5091668;28;20742;-82
2021/05/26 00:38:48;;;;;;;12.10;3.67;;;;;;;;;;5093246;28;20277;-82
2021/05/26 00:41:15;;;;;;;11.30;3.60;;;;;;;;;;5085923;28;20748;-82
2021/05/26 00:43:42;;;;;;;16.40;4.27;;;;;;;;;;5088986;28;20226;-82
2021/05/26 00:46:08;;;;;;;9.80;3.33;;;;;;;;;;5092987;28;20257;-82
2021/05/26 00:48:36;;;;;;;13.07;3.67;;;;;;;;;;5093119;28;20287;-82
2021/05/26 00:51:03;;;;;;;11.00;3.33;;;;;;;;;;5091968;28;20226;-82
2021/05/26 00:53:31;;;;;;;13.57;3.53;;;;;;;;;;5073103;28;20639;-82
2021/05/26 00:55:58;;;;;;;11.60;2.97;;;;;;;;;;5084017;28;20210;-81
2021/05/26 00:58:25;;;;;;;17.77;4.10;;;;;;;;;;5092611;28;20285;-82
2021/05/26 01:00:52;;;;;;;13.00;3.30;;;;;;;;;;5089475;28;20219;-82
2021/05/26 01:03:18;;;;;;;10.57;3.23;;;;;;;;;;5089958;28;20203;-82
2021/05/26 01:05:46;;;;;;;10.43;3.33;;;;;;;;;;5072725;28;20227;-83
2021/05/26 01:08:14;;;;;;;8.90;3.20;;;;;;;;;;5076049;28;20269;-83
2021/05/26 01:10:41;;;;;;;8.53;3.20;;;;;;;;;;5059071;28;20195;-82
2021/05/26 01:13:08;;;;;;;10.47;3.47;;;;;;;;;;5084519;28;20230;-83
2021/05/26 01:15:34;;;;;;;14.27;3.97;;;;;;;;;;5088497;28;20278;-82
2021/05/26 01:18:24;;;;;;;14.60;4.07;;;;;;;;;;5084598;28;20234;-83
2021/05/26 01:20:53;;;;;;;11.00;3.30;;;;;;;;;;5081315;28;20309;-84
2021/05/26 01:23:20;;;;;;;11.10;3.70;;;;;;;;;;5085334;28;20686;-83
2021/05/26 01:25:48;;;;;;;11.13;3.20;;;;;;;;;;5079992;28;20191;-82
2021/05/26 01:28:15;;;;;;;12.40;3.60;;;;;;;;;;5085704;28;20295;-82
2021/05/26 01:30:42;;;;;;;9.53;3.00;;;;;;;;;;5074813;28;20285;-82
2021/05/26 01:33:09;;;;;;;11.87;3.20;;;;;;;;;;5073687;28;20234;-82
2021/05/26 01:35:38;;;;;;;9.10;2.53;;;;;;;;;;5091147;28;20222;-82
2021/05/26 01:38:05;;;;;;;9.73;2.77;;;;;;;;;;5090403;28;20257;-82
2021/05/26 01:40:33;;;;;;;9.67;2.90;;;;;;;;;;5090505;28;20762;-83
2021/05/26 01:43:00;;;;;;;9.47;2.77;;;;;;;;;;5087623;28;20237;-82
2021/05/26 01:45:26;;;;;;;8.17;2.60;;;;;;;;;;5071868;28;20286;-82
2021/05/26 01:47:53;;;;;;;6.97;2.47;;;;;;;;;;5072508;28;20203;-82
2021/05/26 01:50:21;;;;;;;8.97;2.37;;;;;;;;;;5075511;28;20226;-82
2021/05/26 01:52:49;;;;;;;8.97;2.67;;;;;;;;;;5072191;28;20206;-83
2021/05/26 01:55:16;;;;;;;8.57;2.60;;;;;;;;;;5072103;28;20202;-82
2021/05/26 01:57:45;;;;;;;11.57;3.00;;;;;;;;;;5080010;28;20293;-81
2021/05/26 02:00:12;;;;;;;9.83;2.40;;;;;;;;;;5083302;28;20253;-82
2021/05/26 02:02:39;;;;;;;10.50;2.50;;;;;;;;;;5087198;28;20636;-81
2021/05/26 02:05:07;;;;;;;11.70;2.63;;;;;;;;;;5075847;28;20227;-82
2021/05/26 02:07:34;;;;;;;7.83;2.40;;;;;;;;;;5077836;28;20194;-82
2021/05/26 02:10:01;;;;;;;11.50;2.50;;;;;;;;;;5071540;28;20596;-81
2021/05/26 02:12:32;;;;;;;11.23;2.60;;;;;;;;;;5077231;28;20226;-81
2021/05/26 02:15:00;;;;;;;10.80;2.40;;;;;;;;;;5072058;28;20547;-82
2021/05/26 02:17:29;;;;;;;5.73;2.10;;;;;;;;;;5071943;28;20188;-83
2021/05/26 02:19:56;;;;;;;6.73;2.60;;;;;;;;;;5073099;28;20708;-82
2021/05/26 02:22:23;;;;;;;5.70;2.17;;;;;;;;;;5076933;28;20232;-82
2021/05/26 02:24:50;;;;;;;7.17;2.23;;;;;;;;;;5074020;28;20246;-82
2021/05/26 02:27:17;;;;;;;6.50;2.20;;;;;;;;;;5076916;28;20408;-82
2021/05/26 02:29:45;;;;;;;8.97;2.47;;;;;;;;;;5081730;28;20287;-84
2021/05/26 02:32:13;;;;;;;12.07;2.40;;;;;;;;;;5084930;28;20225;-82
2021/05/26 02:34:40;;;;;;;9.10;2.30;;;;;;;;;;5090859;28;20249;-82
2021/05/26 02:37:07;;;;;;;6.10;2.40;;;;;;;;;;5089875;28;20226;-83
2021/05/26 02:39:33;;;;;;;6.93;2.17;;;;;;;;;;5083651;28;20290;-81
2021/05/26 02:42:01;;;;;;;6.27;1.77;;;;;;;;;;5075228;28;20675;-82
2021/05/26 02:44:27;;;;;;;5.93;2.10;;;;;;;;;;5089923;28;20734;-82
2021/05/26 02:46:54;;;;;;;6.67;2.10;;;;;;;;;;5091278;28;20233;-81
2021/05/26 02:49:22;;;;;;;5.43;2.07;;;;;;;;;;5089034;28;20285;-81
2021/05/26 02:51:48;;;;;;;3.87;1.80;;;;;;;;;;5094287;28;20216;-82
2021/05/26 02:54:15;;;;;;;7.50;2.20;;;;;;;;;;5094905;28;20259;-82
2021/05/26 02:56:42;;;;;;;6.47;1.97;;;;;;;;;;5087750;28;20225;-82
2021/05/26 02:59:09;;;;;;;5.53;2.27;;;;;;;;;;5076054;28;20206;-82
2021/05/26 03:01:36;;;;;;;4.47;1.83;;;;;;;;;;5094551;28;20710;-82
2021/05/26 03:04:03;;;;;;;7.73;2.00;;;;;;;;;;5088220;28;20286;-82
2021/05/26 03:06:31;;;;;;;4.27;1.90;;;;;;;;;;5078022;28;20293;-82
2021/05/26 03:08:58;;;;;;;6.10;2.33;;;;;;;;;;5080920;28;20195;-82
2021/05/26 03:11:25;;;;;;;5.60;2.30;;;;;;;;;;5075751;28;20760;-82
2021/05/26 03:13:51;;;;;;;5.87;1.97;;;;;;;;;;5074877;28;20294;-82
2021/05/26 03:16:18;;;;;;;5.50;2.10;;;;;;;;;;5089043;28;20287;-81
2021/05/26 03:18:46;;;;;;;7.03;2.30;;;;;;;;;;5094125;28;20253;-81
2021/05/26 03:21:13;;;;;;;4.10;2.20;;;;;;;;;;5075393;28;20225;-81
2021/05/26 03:23:42;;;;;;;5.23;2.10;;;;;;;;;;5077417;28;20291;-81
2021/05/26 03:26:09;;;;;;;7.53;1.23;;;;;;;;;;5088103;28;20574;-80
2021/05/26 03:28:36;;;;;;;1.93;0.60;;;;;;;;;;5079413;28;20232;-80
2021/05/26 03:31:03;;;;;;;1.67;0.50;;;;;;;;;;5074530;28;20640;-81
2021/05/26 03:33:30;;;;;;;1.50;0.70;;;;;;;;;;5077191;28;20290;-81
2021/05/26 03:35:57;;;;;;;1.67;0.70;;;;;;;;;;5079604;28;20286;-81
2021/05/26 03:38:24;;;;;;;1.87;0.63;;;;;;;;;;5078104;28;20187;-81
2021/05/26 03:40:51;;;;;;;2.23;1.00;;;;;;;;;;5074412;28;20230;-81
2021/05/26 03:43:18;;;;;;;1.70;0.57;;;;;;;;;;5057337;28;20231;-81
2021/05/26 03:45:45;;;;;;;2.20;0.90;;;;;;;;;;5074570;28;20321;-81
2021/05/26 03:48:11;;;;;;;1.97;0.77;;;;;;;;;;5085207;28;20678;-82
2021/05/26 03:50:39;;;;;;;3.80;0.90;;;;;;;;;;5093765;28;20198;-82
2021/05/26 03:53:07;;;;;;;1.37;0.70;;;;;;;;;;5074110;28;20205;-83
2021/05/26 03:55:34;;;;;;;2.27;0.87;;;;;;;;;;5074119;28;21061;-83
2021/05/26 03:58:02;;;;;;;5.47;0.90;;;;;;;;;;5091711;28;20291;-82
2021/05/26 04:00:29;;;;;;;2.23;0.83;;;;;;;;;;5092132;28;20226;-83
2021/05/26 04:02:55;;;;;;;4.70;1.00;;;;;;;;;;5093806;28;20290;-82
2021/05/26 04:05:22;;;;;;;3.57;1.00;;;;;;;;;;5090344;28;20230;-82
2021/05/26 04:07:49;;;;;;;3.23;1.10;;;;;;;;;;5093895;28;20230;-82
2021/05/26 04:10:16;;;;;;;4.20;1.50;;;;;;;;;;5093771;28;20327;-82
2021/05/26 04:12:42;;;;;;;4.20;1.17;;;;;;;;;;5094191;28;20280;-82
2021/05/26 04:15:11;;;;;;;2.87;1.20;;;;;;;;;;5093822;28;20297;-82
2021/05/26 04:17:37;;;;;;;3.80;1.20;;;;;;;;;;5083572;28;20227;-82
2021/05/26 04:20:05;;;;;;;2.63;1.40;;;;;;;;;;5087678;28;20680;-83
2021/05/26 04:22:32;;;;;;;2.93;1.50;;;;;;;;;;5081990;28;20289;-82
2021/05/26 04:24:59;;;;;;;2.93;1.30;;;;;;;;;;5073551;28;20634;-82
2021/05/26 04:27:26;;;;;;;2.83;1.33;;;;;;;;;;5074009;28;20326;-82
2021/05/26 04:29:52;;;;;;;5.80;1.70;;;;;;;;;;5092975;28;20723;-83
2021/05/26 04:32:20;;;;;;;4.13;1.57;;;;;;;;;;5093508;28;20213;-83
2021/05/26 04:34:47;;;;;;;5.80;1.80;;;;;;;;;;5092297;28;20222;-82
2021/05/26 04:37:16;;;;;;;2.97;1.47;;;;;;;;;;5092918;28;20254;-83
2021/05/26 04:39:43;;;;;;;3.47;1.70;;;;;;;;;;5092408;28;20199;-82
2021/05/26 04:42:12;;;;;;;4.53;1.90;;;;;;;;;;5085680;28;20289;-83
2021/05/26 04:44:38;;;;;;;4.77;1.97;;;;;;;;;;5079689;28;20217;-82
2021/05/26 04:47:05;;;;;;;5.63;2.30;;;;;;;;;;5081518;28;20229;-83
2021/05/26 04:49:33;;;;;;;5.60;2.27;;;;;;;;;;5092238;28;20222;-82
2021/05/26 04:51:59;;;;;;;5.70;2.13;;;;;;;;;;5092020;28;20340;-82
2021/05/26 04:54:26;;;;;;;5.10;2.27;;;;;;;;;;5093019;28;20681;-82
2021/05/26 04:56:53;;;;;;;5.07;2.20;;;;;;;;;;5089638;28;20510;-83
2021/05/26 04:59:20;;;;;;;5.77;2.30;;;;;;;;;;5092433;28;20301;-83
2021/05/26 05:01:47;;;;;;;5.50;2.40;;;;;;;;;;5081883;28;20213;-83
2021/05/26 05:04:13;;;;;;;6.43;2.60;;;;;;;;;;5092186;28;20247;-83
2021/05/26 05:06:41;;;;;;;6.80;2.73;;;;;;;;;;5075882;28;20202;-81
2021/05/26 05:09:10;;;;;;;4.33;2.50;;;;;;;;;;5092541;28;20206;-81
2021/05/26 05:11:37;;;;;;;6.77;2.03;;;;;;;;;;5083093;28;20202;-84
2021/05/26 05:14:04;;;;;;;5.73;2.50;;;;;;;;;;5078197;28;20194;-83
2021/05/26 05:16:32;;;;;;;6.97;2.80;;;;;;;;;;5089728;28;20291;-83
2021/05/26 05:18:58;;;;;;;6.83;2.60;;;;;;;;;;5072294;28;20241;-83
2021/05/26 05:21:25;;;;;;;5.50;2.70;;;;;;;;;;5075845;28;20258;-83
2021/05/26 05:23:53;;;;;;;7.17;2.67;;;;;;;;;;5092558;28;20289;-83
2021/05/26 05:26:20;;;;;;;6.37;3.10;;;;;;;;;;5090236;28;20285;-82
2021/05/26 05:28:47;;;;;;;5.73;2.90;;;;;;;;;;5072617;28;20564;-80
2021/05/26 05:31:14;;;;;;;6.53;3.00;;;;;;;;;;5075028;28;20293;-81
2021/05/26 05:33:41;;;;;;;6.77;2.90;;;;;;;;;;5072047;28;20678;-83
2021/05/26 05:36:10;;;;;;;6.63;2.70;;;;;;;;;;5071923;28;20286;-80
2021/05/26 05:38:36;;;;;;;6.57;2.80;;;;;;;;;;5086546;28;20203;-81
2021/05/26 05:41:04;;;;;;;6.00;2.50;;;;;;;;;;5089777;28;20222;-80
2021/05/26 05:43:32;;;;;;;7.43;2.63;;;;;;;;;;5093387;28;20244;-79
2021/05/26 05:46:00;;;;;;;6.50;2.97;;;;;;;;;;5075543;28;20227;-83
2021/05/26 05:48:27;;;;;;;4.27;2.40;;;;;;;;;;5092234;28;20202;-80
2021/05/26 05:50:54;;;;;;;5.73;2.63;;;;;;;;;;5091956;28;20194;-79
2021/05/26 05:53:21;;;;;;;5.97;2.20;;;;;;;;;;5090778;28;20241;-80
2021/05/26 05:55:47;;;;;;;5.20;2.47;;;;;;;;;;5089009;28;20210;-81
2021/05/26 05:58:22;;;;;;;7.90;2.53;;;;;;;;;;5088128;28;20274;-79
2021/05/26 06:00:49;;;;;;;5.20;2.47;;;;;;;;;;5086821;28;20253;-80
2021/05/26 06:03:15;;;;;;;8.30;3.07;;;;;;;;;;5081403;28;20282;-81
2021/05/26 06:05:42;;;;;;;4.30;2.47;;;;;;;;;;5081782;28;20277;-80
2021/05/26 06:08:09;;;;;;;5.60;2.67;;;;;;;;;;5091502;28;20737;-80
2021/05/26 06:10:36;;;;;;;5.30;2.40;;;;;;;;;;5093513;28;20249;-81
2021/05/26 06:13:07;;;;;;;5.53;2.47;;;;;;;;;;5096895;28;20262;-82
2021/05/26 06:15:35;;;;;;;5.73;2.40;;;;;;;;;;5085947;28;20198;-81
2021/05/26 06:18:01;;;;;;;4.47;2.43;;;;;;;;;;5087483;28;20222;-81
2021/05/26 06:20:28;;;;;;;3.60;2.03;;;;;;;;;;5095588;28;20250;-81
2021/05/26 06:22:55;;;;;;;4.03;2.33;;;;;;;;;;5085849;28;20294;-81
2021/05/26 06:25:22;;;;;;;4.87;2.30;;;;;;;;;;5088488;28;20204;-82
2021/05/26 06:27:49;;;;;;;5.87;2.90;;;;;;;;;;5086227;28;20772;-82
2021/05/26 06:30:15;;;;;;;6.90;2.67;;;;;;;;;;5092457;28;20291;-82
2021/05/26 06:32:43;;;;;;;7.63;2.50;;;;;;;;;;5058335;28;20231;-81
2021/05/26 06:35:11;;;;;;;6.23;2.60;;;;;;;;;;5075956;28;20215;-82
2021/05/26 06:37:37;;;;;;;3.60;2.40;;;;;;;;;;5086726;28;20287;-82
2021/05/26 06:40:05;;;;;;;7.97;2.77;;;;;;;;;;5096392;28;20653;-80
2021/05/26 06:42:32;;;;;;;5.67;2.30;;;;;;;;;;5095776;28;20285;-81
2021/05/26 06:44:59;;;;;;;5.03;2.00;;;;;;;;;;5090636;28;20206;-81
2021/05/26 06:47:26;;;;;;;6.50;2.20;;;;;;;;;;5083178;28;20287;-83
2021/05/26 06:49:53;;;;;;;6.17;2.40;;;;;;;;;;5097208;28;20236;-83
2021/05/26 06:52:20;;;;;;;4.53;2.10;;;;;;;;;;5084082;28;20221;-84
2021/05/26 06:54:47;;;;;;;3.37;2.00;;;;;;;;;;5096637;28;20240;-83
2021/05/26 06:57:13;;;;;;;5.57;2.10;;;;;;;;;;5088376;28;20203;-83
2021/05/26 06:59:40;;;;;;;3.30;2.17;;;;;;;;;;5088287;28;20220;-83
2021/05/26 07:02:07;;;;;;;3.93;2.30;;;;;;;;;;5093514;28;20254;-83
2021/05/26 07:04:34;;;;;;;7.53;2.43;;;;;;;;;;5086404;28;20227;-84
2021/05/26 07:07:01;;;;;;;5.97;2.60;;;;;;;;;;5093389;28;20630;-82
2021/05/26 07:09:28;;;;;;;4.03;2.13;;;;;;;;;;5086851;28;20225;-84
2021/05/26 07:11:55;;;;;;;4.87;2.13;;;;;;;;;;5095182;28;20288;-83
2021/05/26 07:14:21;;;;;;;6.17;2.07;;;;;;;;;;5076018;28;20232;-84
2021/05/26 07:16:48;;;;;;;3.27;1.93;;;;;;;;;;5087558;28;20239;-83
2021/05/26 07:19:15;;;;;;;5.53;2.50;;;;;;;;;;5085170;28;20233;-84
2021/05/26 07:21:42;;;;;;;2.93;2.13;;;;;;;;;;5079809;28;20251;-83
2021/05/26 07:24:10;;;;;;;5.50;2.20;;;;;;;;;;5075181;28;20274;-84
2021/05/26 07:26:37;;;;;;;3.90;2.13;;;;;;;;;;5077632;28;20359;-84
2021/05/26 07:29:04;;;;;;;4.40;1.93;;;;;;;;;;5083439;28;20238;-84
2021/05/26 07:31:30;;;;;;;3.87;1.60;;;;;;;;;;5075080;28;20199;-84
2021/05/26 07:33:58;;;;;;;3.40;1.40;;;;;;;;;;5084116;28;20217;-84
2021/05/26 07:36:25;;;;;;;4.80;1.80;;;;;;;;;;5089253;28;20299;-83
2021/05/26 07:38:52;;;;;;;4.07;1.93;;;;;;;;;;5087398;28;20292;-84
2021/05/26 07:41:19;;;;;;;4.00;1.50;;;;;;;;;;5080877;28;20211;-83
2021/05/26 07:43:46;;;;;;;2.53;1.40;;;;;;;;;;5078353;28;20198;-84
2021/05/26 07:46:13;;;;;;;4.10;1.50;;;;;;;;;;5089852;28;20392;-83
2021/05/26 07:48:40;;;;;;;3.07;1.60;;;;;;;;;;5093858;28;20209;-84
2021/05/26 07:51:07;;;;;;;3.50;1.47;;;;;;;;;;5085949;28;20238;-84
2021/05/26 07:53:34;;;;;;;2.30;1.20;;;;;;;;;;5088751;28;20194;-84
2021/05/26 07:56:02;;;;;;;2.07;1.10;;;;;;;;;;5090371;28;20289;-84
2021/05/26 07:58:29;;;;;;;2.43;1.00;;;;;;;;;;5080071;28;20195;-85
2021/05/26 08:00:56;;;;;;;3.30;0.70;;;;;;;;;;5089678;28;20315;-85
2021/05/26 08:03:23;;;;;;;2.13;0.57;;;;;;;;;;5075110;28;20234;-84
2021/05/26 08:05:49;;;;;;;1.10;0.50;;;;;;;;;;5060020;28;20226;-84
2021/05/26 08:08:16;;;;;;;0.93;0.50;;;;;;;;;;5088463;28;20615;-83
2021/05/26 08:10:43;;;;;;;2.73;0.70;;;;;;;;;;5091955;28;20221;-82
2021/05/26 08:13:13;;;;;;;1.47;0.50;;;;;;;;;;5078530;28;20226;-84
2021/05/26 08:15:40;;;;;;;2.80;0.80;;;;;;;;;;5081655;28;20223;-85
2021/05/26 08:18:07;;;;;;;2.70;0.70;;;;;;;;;;5077233;28;20234;-86
2021/05/26 08:20:34;;;;;;;0.70;0.50;;;;;;;;;;5083832;28;20309;-86
2021/05/26 08:23:01;;;;;;;2.13;0.50;;;;;;;;;;5085724;28;20706;-85
2021/05/26 08:25:28;;;;;;;1.13;0.50;;;;;;;;;;5077386;28;20285;-85
2021/05/26 08:27:55;;;;;;;2.47;0.60;;;;;;;;;;5089701;28;20250;-85
2021/05/26 08:30:22;;;;;;;0.70;0.50;;;;;;;;;;5085194;28;20187;-86
2021/05/26 08:32:50;;;;;;;2.30;0.60;;;;;;;;;;5085056;28;20670;-86
2021/05/26 08:35:16;;;;;;;1.73;0.70;;;;;;;;;;5073576;28;20203;-85
2021/05/26 08:37:44;;;;;;;0.97;0.60;;;;;;;;;;5073283;28;20314;-83
2021/05/26 08:40:11;;;;;;;3.53;0.43;;;;;;;;;;5080742;28;20230;-83
2021/05/26 08:42:41;;;;;;;1.40;0.57;;;;;;;;;;5078563;28;20191;-84
2021/05/26 08:45:08;;;;;;;2.57;0.67;;;;;;;;;;5084214;28;20201;-85
2021/05/26 08:47:35;;;;;;;1.33;0.67;;;;;;;;;;5090725;28;20217;-85
2021/05/26 08:50:04;;;;;;;1.33;0.63;;;;;;;;;;5092013;28;20213;-85
2021/05/26 08:52:31;;;;;;;1.90;0.67;;;;;;;;;;5092349;28;20207;-86
2021/05/26 08:54:58;;;;;;;2.13;0.83;;;;;;;;;;5079269;28;20648;-87
2021/05/26 08:57:24;;;;;;;2.40;0.73;;;;;;;;;;5070665;28;21751;-86
2021/05/26 08:59:51;;;;;;;1.60;0.60;;;;;;;;;;5090870;28;20229;-86
2021/05/26 09:02:19;;;;;;;1.20;0.50;;;;;;;;;;5083422;28;20347;-86
2021/05/26 09:04:46;;;;;;;2.60;0.70;;;;;;;;;;5081854;28;20554;-86
2021/05/26 09:07:15;;;;;;;2.23;0.60;;;;;;;;;;5081337;28;20223;-86
2021/05/26 09:09:50;;;;;;;1.80;0.40;;;;;;;;;;5081201;28;20257;-86
2021/05/26 09:12:24;;;;;;;1.97;0.50;;;;;;;;;;5088323;28;20198;-86
2021/05/26 09:14:51;;;;;;;2.63;0.70;;;;;;;;;;5082033;28;21320;-86
2021/05/26 09:17:18;;;;;;;1.60;0.90;;;;;;;;;;5081636;28;20198;-86
2021/05/26 09:19:45;;;;;;;1.67;0.73;;;;;;;;;;5084087;28;20203;-86
2021/05/26 09:22:26;;;;;;;1.40;0.80;;;;;;;;;;5083814;28;20732;-87
2021/05/26 09:25:06;;;;;;;1.60;0.80;;;;;;;;;;5073076;28;20219;-86
2021/05/26 09:27:33;;;;;;;1.60;0.80;;;;;;;;;;5081554;28;20272;-86
2021/05/26 09:30:00;;;;;;;1.27;0.80;;;;;;;;;;5088643;28;20737;-86
2021/05/26 09:32:33;;;;;;;1.73;0.90;;;;;;;;;;5078252;28;20197;-87
2021/05/26 09:35:00;;;;;;;1.00;0.50;;;;;;;;;;5087217;28;20576;-87
2021/05/26 09:37:27;;;;;;;0.80;0.47;;;;;;;;;;5082079;28;20601;-86
2021/05/26 09:39:57;;;;;;;1.67;0.50;;;;;;;;;;5057439;28;20617;-86
2021/05/26 09:42:25;;;;;;;0.40;0.40;;;;;;;;;;5077533;28;20305;-87
2021/05/26 09:45:12;;;;;;;0.70;0.53;;;;;;;;;;5080404;28;20264;-86
2021/05/26 09:47:40;;;;;;;1.23;0.50;;;;;;;;;;5082478;28;20221;-87
2021/05/26 09:50:34;;;;;;;1.00;0.60;;;;;;;;;;5086122;28;20232;-87
2021/05/26 09:53:05;;;;;;;1.30;0.50;;;;;;;;;;5009142;28;20197;-87
2021/05/26 09:55:45;;;;;;;1.13;0.70;;;;;;;;;;5001332;28;20198;-86
2021/05/26 09:58:13;;;;;;;1.27;0.50;;;;;;;;;;5008763;28;20201;-86
2021/05/26 10:00:40;;;;;;;1.97;0.60;;;;;;;;;;5000653;28;20232;-86
2021/05/26 10:03:10;;;;;;;0.70;0.50;;;;;;;;;;5001544;28;20351;-87
2021/05/26 10:05:38;;;;;;;1.83;0.80;;;;;;;;;;4994681;28;20206;-86
2021/05/26 10:08:07;;;;;;;1.30;0.70;;;;;;;;;;5008598;28;20200;-86
2021/05/26 10:10:51;;;;;;;1.13;0.60;;;;;;;;;;5005140;28;20235;-86
2021/05/26 10:13:29;;;;;;;;;;;;;;;;;;;;;
2021/05/26 10:15:56;;;;;;;0.40;0.40;;;;;;;;;;5007394;28;20193;-86
2021/05/26 10:18:25;;;;;;;1.37;0.60;;;;;;;;;;4996598;28;20220;-87
2021/05/26 10:20:58;;;;;;;2.50;0.60;;;;;;;;;;5003115;28;20228;-86
2021/05/26 10:23:25;;;;;;;1.00;0.80;;;;;;;;;;5002609;28;20209;-86
2021/05/26 10:25:54;;;;;;;0.97;0.60;;;;;;;;;;5000896;28;20225;-86
2021/05/26 10:28:27;;;;;;;8.40;6.23;;;;;;;;;;5028417;28;20227;-87
2021/05/26 10:30:55;;;;;;;7.90;6.10;;;;;;;;;;5076514;28;20978;-86
2021/05/26 10:33:22;;;;;;;7.50;4.47;;;;;;;;;;5087193;28;20654;-86
2021/05/26 10:35:56;;;;;;;7.77;5.80;;;;;;;;;;5083667;28;20264;-86
2021/05/26 10:38:23;;;;;;;2.30;1.40;;;;;;;;;;5079546;28;20201;-86
2021/05/26 10:40:51;;;;;;;1.07;0.67;;;;;;;;;;5080903;28;20253;-80
2021/05/26 10:43:31;;;;;;;0.60;0.40;;;;;;;;;;5075391;28;20226;-80
2021/05/26 10:46:03;;;;;;;0.60;0.40;;;;;;;;;;5082663;28;20234;-82
2021/05/26 10:49:05;;;;;;;0.43;0.40;;;;;;;;;;5081641;28;20667;-81
2021/05/26 10:51:57;;;;;;;0.60;0.50;;;;;;;;;;5088169;28;20202;-80
2021/05/26 10:54:48;;;;;;;0.60;0.40;;;;;;;;;;5072590;28;20566;-81
2021/05/26 10:57:15;;;;;;;0.30;0.30;;;;;;;;;;5068243;28;20330;-80
2021/05/26 11:00:03;;;;;;;0.83;0.40;;;;;;;;;;5083139;28;20235;-81
2021/05/26 11:02:29;;;;;;;0.40;0.40;;;;;;;;;;5093938;28;20665;-81
2021/05/26 11:05:16;;;;;;;1.33;0.93;;;;;;;;;;5081400;28;20290;-81
2021/05/26 11:07:43;;;;;;;1.10;0.87;;;;;;;;;;5090440;28;20863;-81
2021/05/26 11:10:10;;;;;;;0.90;0.50;;;;;;;;;;5093334;28;20290;-80
2021/05/26 11:12:52;;;;;;;2.10;0.70;;;;;;;;;;5092199;28;20202;-80
2021/05/26 11:15:33;;;;;;;1.03;0.57;;;;;;;;;;5082450;28;20219;-80
2021/05/26 11:18:11;;;;;;;1.30;0.60;;;;;;;;;;5081571;28;20585;-80
2021/05/26 11:20:38;;;;;;;0.93;0.67;;;;;;;;;;5091360;28;20325;-80
2021/05/26 11:23:11;;;;;;;1.27;0.70;;;;;;;;;;5092836;28;20289;-81
2021/05/26 11:25:38;;;;;;;1.40;0.80;;;;;;;;;;5084654;28;20231;-82
2021/05/26 11:28:04;;;;;;;1.07;0.70;;;;;;;;;;5085835;28;20321;-82
2021/05/26 11:30:31;;;;;;;1.83;0.50;;;;;;;;;;5075199;28;20260;-82
2021/05/26 11:33:01;;;;;;;1.70;0.80;;;;;;;;;;5076290;28;20286;-84
2021/05/26 11:35:29;;;;;;;1.03;0.63;;;;;;;;;;5082689;28;20206;-82
2021/05/26 11:37:56;;;;;;;0.90;0.70;;;;;;;;;;5079084;28;20801;-82
2021/05/26 11:40:25;;;;;;;1.33;0.70;;;;;;;;;;5088371;28;20195;-82
2021/05/26 11:42:52;;;;;;;0.80;0.60;;;;;;;;;;5074834;28;20207;-82
2021/05/26 11:45:19;;;;;;;0.90;0.60;;;;;;;;;;5074966;28;20195;-82
2021/05/26 11:47:46;;;;;;;0.93;0.30;;;;;;;;;;5085915;28;20219;-82
2021/05/26 11:50:20;;;;;;;1.37;0.57;;;;;;;;;;5083977;28;20198;-82
2021/05/26 11:52:49;;;;;;;0.97;0.70;;;;;;;;;;5085600;28;20225;-83
2021/05/26 11:55:17;;;;;;;1.20;1.00;;;;;;;;;;5082146;28;20260;-82
2021/05/26 11:57:44;;;;;;;1.57;0.70;;;;;;;;;;5080162;28;20580;-82
2021/05/26 12:00:12;;;;;;;1.70;0.80;;;;;;;;;;5083238;28;20196;-81
2021/05/26 12:02:52;;;;;;;1.20;0.60;;;;;;;;;;5083878;28;20225;-83
2021/05/26 12:05:34;;;;;;;1.00;0.70;;;;;;;;;;5086788;28;20299;-83
2021/05/26 12:08:02;;;;;;;1.30;0.73;;;;;;;;;;5092082;28;20291;-83
2021/05/26 12:10:29;;;;;;;4.23;1.30;;;;;;;;;;5093235;28;20278;-83
2021/05/26 12:13:00;;;;;;;1.80;1.60;;;;;;;;;;5085822;28;20223;-83
2021/05/26 12:15:28;;;;;;;7.77;6.97;;;;;;;;;;5072935;28;20195;-83
2021/05/26 12:17:54;;;;;;;261.13;142.83;;;;;;;;;;5083668;28;20225;-83
2021/05/26 12:20:21;;;;;;;10.77;7.60;;;;;;;;;;5092719;28;20237;-83
2021/05/26 12:22:50;;;;;;;32.13;29.13;;;;;;;;;;5069968;28;20282;-83
2021/05/26 12:25:18;;;;;;;6.07;4.90;;;;;;;;;;5078833;28;20236;-82
2021/05/26 12:27:46;;;;;;;10.00;8.97;;;;;;;;;;5080459;28;20294;-83
2021/05/26 12:30:14;;;;;;;1.73;1.00;;;;;;;;;;5090858;28;20202;-84
2021/05/26 12:32:42;;;;;;;1.37;0.70;;;;;;;;;;5086049;28;20273;-83
2021/05/26 12:35:12;;;;;;;0.80;0.50;;;;;;;;;;5082546;28;20206;-83
2021/05/26 12:37:39;;;;;;;3.83;3.43;;;;;;;;;;5088607;28;20253;-83
2021/05/26 12:40:07;;;;;;;2.23;1.60;;;;;;;;;;5081991;28;20203;-83
2021/05/26 12:42:39;;;;;;;5.97;5.47;;;;;;;;;;5081857;28;20311;-83
2021/05/26 12:45:20;;;;;;;1.10;0.60;;;;;;;;;;5092169;28;20202;-83
2021/05/26 12:47:47;;;;;;;1.43;0.53;;;;;;;;;;5092525;28;20222;-83
2021/05/26 12:50:14;;;;;;;1.03;0.50;;;;;;;;;;5084988;28;20629;-83
2021/05/26 12:52:42;;;;;;;2.03;1.83;;;;;;;;;;5084911;28;20614;-83
2021/05/26 12:55:10;;;;;;;1.67;1.57;;;;;;;;;;5091137;28;20202;-83
2021/05/26 12:57:41;;;;;;;1.93;0.80;;;;;;;;;;5092397;28;20198;-83
2021/05/26 13:00:09;;;;;;;1.07;0.73;;;;;;;;;;5075916;28;20693;-83
2021/05/26 13:02:37;;;;;;;0.73;0.60;;;;;;;;;;5090148;28;20313;-83
2021/05/26 13:05:05;;;;;;;3.17;2.97;;;;;;;;;;5076194;28;20194;-83
2021/05/26 13:07:33;;;;;;;1.57;1.10;;;;;;;;;;5084296;28;20738;-83
2021/05/26 13:10:15;;;;;;;3.23;1.20;;;;;;;;;;5059874;28;20249;-83
2021/05/26 13:12:44;;;;;;;0.80;0.80;;;;;;;;;;5080328;28;20276;-83
2021/05/26 13:15:21;;;;;;;1.70;1.60;;;;;;;;;;5079159;28;20704;-84
2021/05/26 13:17:48;;;;;;;2.00;0.93;;;;;;;;;;5081251;28;20285;-83
2021/05/26 13:20:19;;;;;;;2.00;1.00;;;;;;;;;;5084324;28;20199;-84
2021/05/26 13:22:46;;;;;;;1.90;1.80;;;;;;;;;;5089227;28;20322;-83
2021/05/26 13:25:12;;;;;;;0.97;0.87;;;;;;;;;;5088259;28;20230;-84
2021/05/26 13:27:42;;;;;;;0.80;0.80;;;;;;;;;;5083502;28;20299;-84
2021/05/26 13:30:09;;;;;;;1.27;0.80;;;;;;;;;;5090683;28;20205;-83
2021/05/26 13:32:36;;;;;;;0.80;0.80;;;;;;;;;;5078084;28;20203;-84
2021/05/26 13:35:03;;;;;;;1.60;0.80;;;;;;;;;;5074725;28;20219;-84
2021/05/26 13:37:30;;;;;;;2.60;0.90;;;;;;;;;;5087053;28;20269;-84
2021/05/26 13:39:57;;;;;;;1.70;1.10;;;;;;;;;;5077667;28;20205;-84
2021/05/26 13:42:25;;;;;;;1.13;0.60;;;;;;;;;;5090964;28;20685;-83
2021/05/26 13:44:52;;;;;;;1.83;0.90;;;;;;;;;;5082765;28;20294;-84
2021/05/26 13:47:19;;;;;;;1.73;0.80;;;;;;;;;;5087322;28;20279;-84
2021/05/26 13:49:46;;;;;;;1.40;0.60;;;;;;;;;;5083771;28;20674;-84
2021/05/26 13:52:12;;;;;;;1.20;0.80;;;;;;;;;;5083822;28;20350;-84
2021/05/26 13:54:39;;;;;;;0.80;0.73;;;;;;;;;;5077137;28;20277;-83
2021/05/26 13:57:06;;;;;;;1.00;0.90;;;;;;;;;;5079313;28;20226;-83
2021/05/26 13:59:33;;;;;;;1.00;0.90;;;;;;;;;;5087346;28;20732;-83
2021/05/26 14:02:00;;;;;;;1.20;1.10;;;;;;;;;;5065705;28;20226;-84
2021/05/26 14:04:27;;;;;;;0.90;0.90;;;;;;;;;;5082696;28;20290;-84
2021/05/26 14:06:55;;;;;;;1.43;0.77;;;;;;;;;;5083204;28;20722;-84
2021/05/26 14:09:22;;;;;;;1.63;0.90;;;;;;;;;;5082708;28;20210;-84
2021/05/26 14:11:52;;;;;;;0.97;0.90;;;;;;;;;;5084466;28;20219;-84
2021/05/26 14:14:19;;;;;;;0.70;0.70;;;;;;;;;;5079461;28;20689;-84
2021/05/26 14:16:45;;;;;;;2.00;0.70;;;;;;;;;;5082140;28;20203;-84
2021/05/26 14:19:13;;;;;;;10.70;8.13;;;;;;;;;;5080506;28;20644;-84
2021/05/26 14:21:40;;;;;;;1.73;1.13;;;;;;;;;;5076966;28;20280;-84
2021/05/26 14:24:08;;;;;;;0.70;0.50;;;;;;;;;;5079995;28;20230;-84
2021/05/26 14:26:35;;;;;;;1.43;0.40;;;;;;;;;;5083133;28;20298;-84
2021/05/26 14:29:02;;;;;;;0.50;0.50;;;;;;;;;;5089633;28;20203;-85
2021/05/26 14:31:29;;;;;;;2.40;2.20;;;;;;;;;;5080176;28;20198;-84
2021/05/26 14:33:55;;;;;;;1.77;0.70;;;;;;;;;;5079714;28;20584;-84
2021/05/26 14:36:26;;;;;;;0.43;0.37;;;;;;;;;;5086664;28;20290;-84
2021/05/26 14:38:59;;;;;;;2.43;0.77;;;;;;;;;;5092335;28;20199;-84
2021/05/26 14:41:26;;;;;;;4.27;2.93;;;;;;;;;;5078464;28;20206;-84
2021/05/26 14:43:53;;;;;;;1.00;0.90;;;;;;;;;;5088265;28;20670;-83
2021/05/26 14:46:21;;;;;;;1.70;1.60;;;;;;;;;;5092036;28;20230;-83
2021/05/26 14:48:48;;;;;;;1.27;1.00;;;;;;;;;;5095922;28;20190;-83
2021/05/26 14:51:15;;;;;;;0.80;0.80;;;;;;;;;;5088296;28;20221;-84